Time;durP1;ratioP1;P1;durP2;ratioP2;P2;SDS_P1;SDS_P2;PMS_P1;PMS_P2;Temp;Humidity;BMP_temperature;BMP_pressure;BME280_temperature;BME280_humidity;BME280_pressure;Samples;Min_cycle;Max_cycle;Signal;HPM_P1;HPM_P2
2021/11/28 00:01:54;;;;;;;15.32;8.20;;;0.60;99.90;;;;;;4990427;28;20374;-70
2021/11/28 00:04:23;;;;;;;15.88;8.50;;;0.60;99.90;;;;;;4985072;28;20026;-69
2021/11/28 00:07:00;;;;;;;15.68;8.50;;;0.60;99.90;;;;;;4991702;28;20140;-69
2021/11/28 00:09:46;;;;;;;16.48;8.98;;;0.60;99.90;;;;;;4988024;28;20109;-69
2021/11/28 00:14:41;;;;;;;16.50;8.90;;;0.60;99.90;;;;;;4988561;28;20114;-70
2021/11/28 00:17:08;;;;;;;13.68;8.32;;;0.60;99.90;;;;;;4971402;28;20095;-70
2021/11/28 00:19:34;;;;;;;15.75;8.40;;;0.60;99.90;;;;;;5004138;28;20469;-70
2021/11/28 00:22:00;;;;;;;14.75;8.35;;;0.60;99.90;;;;;;4987570;28;20117;-71
2021/11/28 00:24:25;;;;;;;13.70;8.25;;;0.60;99.90;;;;;;4986792;28;20508;-70
2021/11/28 00:26:51;;;;;;;12.38;7.65;;;0.60;99.90;;;;;;4985566;28;20135;-70
2021/11/28 00:29:17;;;;;;;15.77;8.93;;;0.60;99.90;;;;;;4988584;28;20070;-70
2021/11/28 00:31:43;;;;;;;15.05;8.48;;;0.60;99.90;;;;;;4990636;28;20789;-70
2021/11/28 00:34:09;;;;;;;13.48;7.90;;;0.60;99.90;;;;;;5018489;28;20027;-70
2021/11/28 00:36:34;;;;;;;13.18;7.68;;;0.60;99.90;;;;;;4992753;28;20030;-70
2021/11/28 00:39:00;;;;;;;13.25;7.13;;;0.60;99.90;;;;;;4983584;28;20026;-69
2021/11/28 00:41:26;;;;;;;13.57;7.63;;;0.60;99.90;;;;;;4988859;28;20477;-69
2021/11/28 00:43:51;;;;;;;9.75;6.55;;;0.60;99.90;;;;;;4977382;28;20040;-70
2021/11/28 00:46:17;;;;;;;12.32;6.78;;;0.60;99.90;;;;;;4970052;28;20101;-70
2021/11/28 00:48:44;;;;;;;10.68;6.78;;;0.60;99.90;;;;;;4990467;28;20026;-69
2021/11/28 00:53:47;;;;;;;7.63;5.40;;;0.60;99.90;;;;;;4987424;28;20083;-70
2021/11/28 00:56:13;;;;;;;7.80;5.40;;;0.60;99.90;;;;;;4963580;28;20454;-70
2021/11/28 00:58:39;;;;;;;11.38;5.88;;;0.60;99.90;;;;;;4987094;28;20105;-69
2021/11/28 01:01:05;;;;;;;8.45;5.95;;;0.60;99.90;;;;;;4968265;28;20109;-69
2021/11/28 01:03:31;;;;;;;8.18;5.90;;;0.60;99.90;;;;;;4985677;28;20480;-70
2021/11/28 01:05:57;;;;;;;10.05;6.25;;;0.50;99.90;;;;;;4968619;28;20401;-71
2021/11/28 01:08:23;;;;;;;8.57;5.25;;;0.50;99.90;;;;;;4958807;28;20030;-70
2021/11/28 01:10:49;;;;;;;9.60;6.28;;;0.50;99.90;;;;;;4983844;28;20041;-70
2021/11/28 01:13:17;;;;;;;8.73;5.93;;;0.50;99.90;;;;;;4982713;28;20034;-70
2021/11/28 01:15:43;;;;;;;9.70;6.10;;;0.60;99.90;;;;;;4986607;28;20026;-70
2021/11/28 01:18:08;;;;;;;7.63;5.72;;;0.60;99.90;;;;;;4984020;28;20082;-70
2021/11/28 01:20:34;;;;;;;9.43;5.85;;;0.60;99.90;;;;;;4985890;28;20034;-70
2021/11/28 01:23:00;;;;;;;7.18;5.45;;;0.70;99.90;;;;;;4970957;28;20478;-70
2021/11/28 01:25:26;;;;;;;8.75;5.80;;;0.70;99.90;;;;;;4970308;28;20726;-70
2021/11/28 01:27:52;;;;;;;8.20;5.85;;;0.60;99.90;;;;;;4990125;28;20027;-70
2021/11/28 01:30:17;;;;;;;8.57;5.88;;;0.70;99.90;;;;;;5026280;28;20023;-70
2021/11/28 01:32:44;;;;;;;9.40;5.57;;;0.70;99.90;;;;;;4965983;28;20057;-70
2021/11/28 01:35:12;;;;;;;8.43;5.68;;;0.70;99.90;;;;;;4986295;28;20042;-70
2021/11/28 01:37:39;;;;;;;7.45;5.78;;;0.70;99.90;;;;;;4985048;28;20049;-69
2021/11/28 01:40:11;;;;;;;8.05;5.70;;;0.70;99.90;;;;;;4983604;28;20394;-70
2021/11/28 01:42:52;;;;;;;9.52;5.95;;;0.70;99.90;;;;;;4991767;28;20116;-70
2021/11/28 01:45:29;;;;;;;7.72;5.50;;;0.70;99.90;;;;;;4981757;28;20046;-70
2021/11/28 01:47:58;;;;;;;8.93;5.35;;;0.70;99.90;;;;;;4970955;28;20037;-70
2021/11/28 01:50:26;;;;;;;7.90;5.30;;;0.70;99.90;;;;;;5004919;28;20024;-70
2021/11/28 01:52:52;;;;;;;10.18;5.75;;;0.70;99.90;;;;;;4995402;28;20026;-70
2021/11/28 01:55:25;;;;;;;6.82;5.15;;;0.80;99.90;;;;;;5002761;28;20024;-70
2021/11/28 01:57:52;;;;;;;8.73;5.50;;;0.90;99.90;;;;;;4997211;28;20022;-70
2021/11/28 02:00:23;;;;;;;8.05;5.85;;;0.90;99.90;;;;;;4993651;28;20030;-70
2021/11/28 02:02:48;;;;;;;10.98;6.00;;;0.90;99.90;;;;;;5006853;28;20023;-70
2021/11/28 02:05:16;;;;;;;11.85;6.65;;;0.90;99.90;;;;;;4965695;28;20034;-70
2021/11/28 02:07:42;;;;;;;10.32;6.60;;;0.90;99.90;;;;;;4987002;28;20030;-69
2021/11/28 02:10:08;;;;;;;11.65;7.45;;;0.90;99.90;;;;;;4970157;28;20125;-70
2021/11/28 02:12:34;;;;;;;12.52;7.35;;;0.90;99.90;;;;;;5025191;28;20022;-70
2021/11/28 02:15:01;;;;;;;13.48;6.78;;;0.90;99.90;;;;;;4985672;28;20026;-71
2021/11/28 02:17:29;;;;;;;11.02;6.72;;;1.00;99.90;;;;;;4985679;28;20037;-70
2021/11/28 02:19:55;;;;;;;10.88;6.88;;;0.90;99.90;;;;;;4968474;28;20087;-71
2021/11/28 02:22:21;;;;;;;12.68;7.72;;;1.00;99.90;;;;;;4972459;28;20022;-73
2021/11/28 02:24:47;;;;;;;10.48;7.32;;;0.90;99.90;;;;;;5011612;28;20045;-69
2021/11/28 02:27:13;;;;;;;14.38;8.02;;;1.00;99.90;;;;;;4988553;28;20457;-72
2021/11/28 02:29:40;;;;;;;12.65;7.53;;;1.00;99.90;;;;;;4982699;28;20109;-69
2021/11/28 02:32:06;;;;;;;11.98;7.00;;;0.90;99.90;;;;;;4985826;28;20589;-71
2021/11/28 02:34:31;;;;;;;14.70;7.10;;;0.90;99.90;;;;;;4984762;28;20026;-69
2021/11/28 02:36:57;;;;;;;10.60;7.10;;;0.90;99.90;;;;;;4986668;28;20053;-70
2021/11/28 02:39:23;;;;;;;11.57;7.53;;;0.90;99.90;;;;;;4978034;28;20395;-69
2021/11/28 02:41:49;;;;;;;13.35;8.07;;;0.90;99.90;;;;;;4969845;28;20383;-70
2021/11/28 02:44:16;;;;;;;13.23;7.95;;;0.90;99.90;;;;;;4988111;28;20479;-70
2021/11/28 02:46:43;;;;;;;14.10;7.63;;;0.80;99.90;;;;;;4967817;28;20129;-70
2021/11/28 02:49:08;;;;;;;13.38;8.15;;;0.90;99.90;;;;;;4984601;28;20030;-70
2021/11/28 02:51:35;;;;;;;11.93;7.57;;;0.80;99.90;;;;;;4965622;28;20115;-70
2021/11/28 02:54:01;;;;;;;15.38;8.15;;;0.80;99.90;;;;;;4998019;28;20053;-69
2021/11/28 02:56:27;;;;;;;13.18;7.32;;;0.80;99.90;;;;;;4987510;28;20027;-70
2021/11/28 02:58:53;;;;;;;12.90;8.48;;;0.80;99.90;;;;;;4983257;28;20027;-70
2021/11/28 03:01:21;;;;;;;12.82;8.07;;;0.80;99.90;;;;;;4968046;28;20053;-70
2021/11/28 03:03:48;;;;;;;13.30;8.02;;;0.80;99.90;;;;;;4972301;28;20026;-70
2021/11/28 03:06:14;;;;;;;12.07;8.10;;;0.70;99.90;;;;;;5001550;28;20034;-70
2021/11/28 03:08:40;;;;;;;13.00;7.65;;;0.70;99.90;;;;;;4985549;28;20034;-70
2021/11/28 03:11:07;;;;;;;12.98;7.80;;;0.70;99.90;;;;;;4988661;28;20039;-71
2021/11/28 03:13:36;;;;;;;12.90;7.78;;;0.70;99.90;;;;;;4998861;23;20043;-69
2021/11/28 03:16:05;;;;;;;13.98;7.78;;;0.80;99.90;;;;;;4986828;28;20110;-69
2021/11/28 03:18:32;;;;;;;13.73;7.53;;;0.80;99.90;;;;;;4974593;28;20039;-68
2021/11/28 03:21:01;;;;;;;11.77;7.57;;;0.80;99.90;;;;;;4962361;28;20121;-69
2021/11/28 03:23:32;;;;;;;12.68;7.75;;;0.90;99.90;;;;;;4982348;28;20027;-69
2021/11/28 03:26:09;;;;;;;12.35;7.80;;;0.80;99.90;;;;;;4980651;28;20083;-69
2021/11/28 03:28:35;;;;;;;10.63;6.82;;;0.80;99.90;;;;;;4982827;28;20100;-68
2021/11/28 03:31:01;;;;;;;9.93;7.18;;;0.80;99.90;;;;;;4998793;28;20476;-69
2021/11/28 03:33:27;;;;;;;11.48;7.53;;;0.90;99.90;;;;;;5005218;28;20038;-68
2021/11/28 03:35:53;;;;;;;10.98;6.93;;;0.90;99.90;;;;;;4983135;28;20037;-68
2021/11/28 03:38:18;;;;;;;11.88;7.18;;;0.90;99.90;;;;;;4983778;28;20026;-68
2021/11/28 03:40:44;;;;;;;12.32;7.07;;;0.90;99.90;;;;;;4978616;28;20406;-69
2021/11/28 03:43:10;;;;;;;13.00;7.47;;;0.90;99.90;;;;;;4985901;28;20456;-69
2021/11/28 03:45:36;;;;;;;12.95;7.38;;;0.90;99.90;;;;;;4984821;28;20168;-68
2021/11/28 03:48:02;;;;;;;11.30;7.63;;;0.90;99.90;;;;;;4985761;28;20173;-69
2021/11/28 03:50:28;;;;;;;12.10;7.38;;;1.00;99.90;;;;;;4981946;28;20482;-68
2021/11/28 03:52:53;;;;;;;10.95;6.90;;;1.00;99.90;;;;;;4974314;28;20076;-69
2021/11/28 03:55:21;;;;;;;11.77;7.30;;;1.00;99.90;;;;;;4972803;28;20027;-68
2021/11/28 03:57:47;;;;;;;12.43;6.57;;;1.00;99.90;;;;;;4980756;28;20482;-69
2021/11/28 04:00:13;;;;;;;11.82;6.55;;;1.10;99.90;;;;;;4982823;28;20079;-69
2021/11/28 04:02:39;;;;;;;10.73;6.75;;;1.10;99.90;;;;;;4984937;28;20068;-69
2021/11/28 04:05:06;;;;;;;12.13;7.13;;;1.10;99.90;;;;;;4972324;28;20030;-69
2021/11/28 04:07:32;;;;;;;9.93;6.45;;;1.20;99.90;;;;;;4980038;28;20034;-69
2021/11/28 04:09:58;;;;;;;12.70;6.65;;;1.10;99.90;;;;;;4983807;28;20362;-68
2021/11/28 04:12:23;;;;;;;13.45;6.78;;;1.20;99.90;;;;;;4976354;28;20022;-69
2021/11/28 04:14:49;;;;;;;10.43;6.28;;;1.20;99.90;;;;;;4977170;28;20510;-69
2021/11/28 04:17:15;;;;;;;9.25;6.18;;;1.20;99.90;;;;;;4964038;28;20018;-69
2021/11/28 04:19:41;;;;;;;9.32;5.88;;;1.20;99.90;;;;;;4976401;28;20400;-68
2021/11/28 04:22:07;;;;;;;10.23;6.60;;;1.20;99.90;;;;;;4982330;28;20042;-69
2021/11/28 04:24:33;;;;;;;7.93;6.10;;;1.20;99.90;;;;;;4985660;28;20247;-69
2021/11/28 04:26:59;;;;;;;12.23;7.00;;;1.30;99.90;;;;;;4980511;28;20034;-68
2021/11/28 04:29:24;;;;;;;11.75;6.43;;;1.20;99.90;;;;;;5012978;28;20026;-69
2021/11/28 04:31:50;;;;;;;11.18;6.50;;;1.20;99.90;;;;;;4980734;28;20502;-68
2021/11/28 04:34:16;;;;;;;10.25;6.90;;;1.20;99.90;;;;;;4985529;28;20034;-68
2021/11/28 04:36:43;;;;;;;12.00;6.25;;;1.20;99.90;;;;;;4983862;28;20718;-69
2021/11/28 04:39:09;;;;;;;8.80;6.32;;;1.20;99.90;;;;;;4981700;28;20019;-69
2021/11/28 04:41:35;;;;;;;10.15;6.68;;;1.20;99.90;;;;;;4985698;28;20032;-69
2021/11/28 04:44:01;;;;;;;11.50;6.55;;;1.20;99.90;;;;;;4980975;28;20081;-69
2021/11/28 04:46:26;;;;;;;8.35;5.60;;;1.20;99.90;;;;;;4984038;28;20494;-69
2021/11/28 04:48:52;;;;;;;7.07;5.30;;;1.20;99.90;;;;;;4978540;28;20117;-69
2021/11/28 04:51:17;;;;;;;9.05;5.63;;;1.20;99.90;;;;;;4969130;28;20027;-68
2021/11/28 04:53:43;;;;;;;7.32;5.15;;;1.20;99.90;;;;;;5003789;28;20058;-69
2021/11/28 04:56:08;;;;;;;9.65;5.72;;;1.20;99.90;;;;;;4979967;28;20022;-69
2021/11/28 04:58:34;;;;;;;8.57;5.30;;;1.20;99.90;;;;;;4982601;28;20031;-69
2021/11/28 05:01:00;;;;;;;8.55;5.50;;;1.20;99.90;;;;;;4997248;28;20065;-69
2021/11/28 05:03:25;;;;;;;8.38;5.70;;;1.20;99.90;;;;;;4987779;28;20037;-68
2021/11/28 05:05:51;;;;;;;7.72;4.95;;;1.20;99.90;;;;;;4985399;28;20050;-68
2021/11/28 05:08:16;;;;;;;7.95;5.35;;;1.30;99.90;;;;;;4965859;28;20521;-69
2021/11/28 05:10:42;;;;;;;7.22;4.93;;;1.30;99.90;;;;;;4982007;28;20095;-68
2021/11/28 05:13:08;;;;;;;9.15;5.13;;;1.30;99.90;;;;;;4980132;28;20052;-69
2021/11/28 05:15:34;;;;;;;7.13;4.88;;;1.30;99.90;;;;;;4985582;28;20045;-69
2021/11/28 05:17:59;;;;;;;6.22;4.57;;;1.30;99.90;;;;;;4981469;28;20058;-67
2021/11/28 05:20:25;;;;;;;7.75;4.72;;;1.30;99.90;;;;;;4984830;28;20125;-69
2021/11/28 05:22:50;;;;;;;8.55;4.15;;;1.30;99.90;;;;;;4981168;28;20389;-67
2021/11/28 05:25:16;;;;;;;6.88;4.60;;;1.30;99.90;;;;;;4981070;28;20038;-67
2021/11/28 05:27:45;;;;;;;7.07;4.18;;;1.40;99.90;;;;;;4982516;28;20029;-67
2021/11/28 05:30:12;;;;;;;6.95;4.57;;;1.40;99.90;;;;;;4990491;28;20122;-69
2021/11/28 05:32:37;;;;;;;7.82;4.80;;;1.40;99.90;;;;;;4976643;28;20431;-68
2021/11/28 05:35:04;;;;;;;7.13;4.50;;;1.30;99.90;;;;;;4983438;28;20026;-68
2021/11/28 05:37:30;;;;;;;7.78;5.07;;;1.30;99.90;;;;;;4968653;28;20026;-68
2021/11/28 05:39:56;;;;;;;8.25;5.35;;;1.30;99.90;;;;;;4977923;28;20438;-68
2021/11/28 05:42:22;;;;;;;7.45;4.82;;;1.20;99.90;;;;;;4982924;28;20102;-68
2021/11/28 05:44:47;;;;;;;8.50;5.25;;;1.20;99.90;;;;;;4962208;28;20454;-68
2021/11/28 05:47:13;;;;;;;7.22;4.68;;;1.20;99.90;;;;;;4986572;28;20087;-68
2021/11/28 05:49:39;;;;;;;8.52;5.25;;;1.20;99.90;;;;;;4977084;28;20023;-68
2021/11/28 05:52:05;;;;;;;8.43;4.75;;;1.20;99.90;;;;;;4981568;28;20019;-69
2021/11/28 05:54:30;;;;;;;8.73;5.25;;;1.20;99.90;;;;;;4984735;28;20476;-68
2021/11/28 05:56:56;;;;;;;7.65;5.72;;;1.10;99.90;;;;;;4960798;28;20434;-67
2021/11/28 05:59:22;;;;;;;8.30;5.60;;;1.10;99.90;;;;;;4975533;28;20102;-68
2021/11/28 06:01:48;;;;;;;8.30;5.40;;;1.10;99.90;;;;;;5002964;28;20029;-68
2021/11/28 06:04:13;;;;;;;8.48;5.85;;;1.00;99.90;;;;;;4979322;28;20052;-68
2021/11/28 06:06:39;;;;;;;9.85;5.85;;;1.10;99.90;;;;;;4982289;28;20046;-68
2021/11/28 06:09:05;;;;;;;9.88;5.47;;;1.10;99.90;;;;;;4984093;28;20487;-68
2021/11/28 06:11:30;;;;;;;8.13;5.07;;;1.10;99.90;;;;;;4986980;28;20041;-69
2021/11/28 06:13:56;;;;;;;7.53;5.28;;;1.10;99.90;;;;;;4978530;28;20054;-68
2021/11/28 06:16:22;;;;;;;9.50;5.40;;;1.20;99.90;;;;;;4983242;28;20023;-68
2021/11/28 06:18:48;;;;;;;8.98;5.38;;;1.20;99.90;;;;;;4985651;28;20035;-69
2021/11/28 06:21:13;;;;;;;9.43;6.18;;;1.20;99.90;;;;;;4984849;28;20102;-68
2021/11/28 06:23:39;;;;;;;9.25;5.70;;;1.20;99.90;;;;;;4992020;28;20030;-68
2021/11/28 06:26:06;;;;;;;9.27;5.65;;;1.30;99.90;;;;;;4975734;28;20137;-68
2021/11/28 06:28:33;;;;;;;10.80;6.05;;;1.30;99.90;;;;;;4971285;28;20105;-68
2021/11/28 06:30:58;;;;;;;9.55;5.68;;;1.30;99.90;;;;;;4983350;28;20037;-68
2021/11/28 06:33:24;;;;;;;8.73;6.47;;;1.30;99.90;;;;;;4990078;28;20026;-68
2021/11/28 06:35:50;;;;;;;9.18;5.70;;;1.30;99.90;;;;;;4956531;28;20143;-68
2021/11/28 06:38:15;;;;;;;10.05;5.53;;;1.30;99.90;;;;;;4982078;28;20390;-68
2021/11/28 06:40:41;;;;;;;10.57;6.03;;;1.20;99.90;;;;;;4980988;28;20026;-68
2021/11/28 06:43:07;;;;;;;16.98;8.85;;;1.20;99.90;;;;;;4986096;28;20042;-68
2021/11/28 06:45:33;;;;;;;9.68;5.68;;;1.20;99.90;;;;;;4974675;28;20104;-68
2021/11/28 06:47:59;;;;;;;9.10;5.72;;;1.20;99.90;;;;;;4979394;28;20425;-68
2021/11/28 06:50:25;;;;;;;11.05;6.38;;;1.20;99.90;;;;;;4980484;28;20061;-70
2021/11/28 06:52:51;;;;;;;10.77;5.90;;;1.20;99.90;;;;;;4981352;28;20082;-68
2021/11/28 06:55:17;;;;;;;9.82;5.90;;;1.10;99.90;;;;;;4979027;28;20062;-68
2021/11/28 06:57:43;;;;;;;9.55;5.70;;;1.10;99.90;;;;;;4986560;28;20022;-68
2021/11/28 07:00:09;;;;;;;8.35;5.80;;;1.10;99.90;;;;;;4987310;28;20027;-68
2021/11/28 07:02:35;;;;;;;7.22;5.13;;;1.10;99.90;;;;;;4987990;28;20079;-68
2021/11/28 07:05:00;;;;;;;12.68;6.03;;;1.10;99.90;;;;;;4985886;28;20423;-68
2021/11/28 07:07:27;;;;;;;9.63;6.32;;;1.10;99.90;;;;;;4974185;28;20030;-68
2021/11/28 07:09:52;;;;;;;8.68;5.88;;;1.10;99.90;;;;;;4974547;28;20024;-68
2021/11/28 07:12:19;;;;;;;9.20;6.13;;;1.10;99.90;;;;;;4983946;28;20512;-68
2021/11/28 07:14:44;;;;;;;9.02;6.00;;;1.10;99.90;;;;;;4976532;28;20027;-68
2021/11/28 07:17:10;;;;;;;10.18;6.60;;;1.20;99.90;;;;;;4973980;28;20022;-68
2021/11/28 07:19:35;;;;;;;7.70;5.68;;;1.20;99.90;;;;;;4985401;28;20038;-68
2021/11/28 07:22:02;;;;;;;10.48;6.60;;;1.20;99.90;;;;;;4987235;28;20084;-68
2021/11/28 07:24:27;;;;;;;12.13;6.25;;;1.20;99.90;;;;;;4979336;28;20130;-69
2021/11/28 07:26:53;;;;;;;8.77;5.55;;;1.30;99.90;;;;;;4983944;28;20139;-68
2021/11/28 07:29:19;;;;;;;10.93;5.88;;;1.30;99.90;;;;;;4979137;28;20042;-68
2021/11/28 07:31:44;;;;;;;10.52;6.75;;;1.30;99.90;;;;;;4982062;28;20018;-68
2021/11/28 07:34:10;;;;;;;11.98;6.47;;;1.30;99.90;;;;;;4989118;28;20036;-68
2021/11/28 07:36:36;;;;;;;11.77;6.35;;;1.30;99.90;;;;;;4975937;28;20467;-68
2021/11/28 07:39:04;;;;;;;24.67;11.85;;;1.40;99.90;;;;;;4985877;28;20493;-68
2021/11/28 07:41:29;;;;;;;53.83;24.13;;;1.30;99.90;;;;;;4978683;28;20487;-68
2021/11/28 07:43:55;;;;;;;36.20;17.90;;;1.30;99.90;;;;;;4983848;28;20045;-68
2021/11/28 07:46:20;;;;;;;41.58;19.33;;;1.40;99.90;;;;;;4985741;28;20056;-68
2021/11/28 07:48:46;;;;;;;43.35;21.40;;;1.40;99.90;;;;;;4986631;28;20027;-68
2021/11/28 07:51:12;;;;;;;48.50;21.88;;;1.40;99.90;;;;;;4987209;28;20034;-68
2021/11/28 07:53:38;;;;;;;32.85;16.67;;;1.50;99.90;;;;;;4979739;28;20114;-68
2021/11/28 07:56:04;;;;;;;13.18;7.55;;;1.50;99.90;;;;;;4986761;28;20019;-69
2021/11/28 07:58:30;;;;;;;12.38;7.00;;;1.50;99.90;;;;;;4978755;28;20027;-68
2021/11/28 08:00:56;;;;;;;14.85;6.72;;;1.50;99.90;;;;;;4985933;28;20042;-69
2021/11/28 08:03:22;;;;;;;9.63;6.40;;;1.50;99.90;;;;;;4986762;28;20033;-69
2021/11/28 08:05:47;;;;;;;10.35;7.25;;;1.50;99.90;;;;;;4983009;28;20734;-69
2021/11/28 08:08:16;;;;;;;8.85;6.72;;;1.50;99.90;;;;;;4984778;28;20022;-69
2021/11/28 08:10:43;;;;;;;19.42;12.63;;;1.60;99.90;;;;;;4968119;28;20470;-67
2021/11/28 08:13:08;;;;;;;16.75;11.20;;;1.60;99.90;;;;;;4987574;28;20087;-68
2021/11/28 08:15:34;;;;;;;17.15;9.15;;;1.60;99.90;;;;;;4976591;28;20031;-68
2021/11/28 08:17:59;;;;;;;12.73;8.93;;;1.60;99.90;;;;;;4984126;28;20018;-68
2021/11/28 08:20:25;;;;;;;9.02;6.68;;;1.60;99.90;;;;;;4990371;28;20070;-68
2021/11/28 08:22:51;;;;;;;9.18;5.95;;;1.60;99.90;;;;;;4990575;28;20034;-68
2021/11/28 08:25:18;;;;;;;8.98;6.30;;;1.50;99.90;;;;;;4990752;28;20030;-69
2021/11/28 08:27:44;;;;;;;11.35;6.03;;;1.60;99.90;;;;;;4985333;28;20027;-69
2021/11/28 08:30:15;;;;;;;10.85;6.05;;;1.50;99.90;;;;;;4990042;28;20386;-69
2021/11/28 08:32:42;;;;;;;10.98;6.18;;;1.40;99.90;;;;;;4987048;28;20026;-68
2021/11/28 08:35:09;;;;;;;10.82;6.22;;;1.40;99.90;;;;;;4989918;28;20022;-67
2021/11/28 08:37:35;;;;;;;9.57;5.65;;;1.30;99.90;;;;;;4989017;28;20088;-67
2021/11/28 08:40:02;;;;;;;13.68;6.53;;;1.30;99.90;;;;;;4990051;28;20034;-67
2021/11/28 08:42:32;;;;;;;9.70;6.13;;;1.30;99.90;;;;;;4991021;28;20026;-68
2021/11/28 08:44:58;;;;;;;12.02;5.30;;;1.30;99.90;;;;;;4962504;28;20129;-67
2021/11/28 08:47:24;;;;;;;11.38;6.35;;;1.30;99.90;;;;;;4989808;28;20076;-67
2021/11/28 08:49:49;;;;;;;11.80;6.40;;;1.30;99.90;;;;;;4990269;28;20441;-68
2021/11/28 08:52:15;;;;;;;11.98;6.25;;;1.30;99.90;;;;;;4990744;28;20061;-67
2021/11/28 08:54:41;;;;;;;10.15;7.03;;;1.40;99.90;;;;;;4990008;28;20026;-68
2021/11/28 08:57:06;;;;;;;12.80;7.40;;;1.40;99.90;;;;;;4989439;28;20493;-67
2021/11/28 08:59:32;;;;;;;12.98;7.78;;;1.50;99.90;;;;;;4989187;28;20069;-68
2021/11/28 09:01:58;;;;;;;18.98;10.98;;;1.50;99.90;;;;;;4989557;28;20041;-67
2021/11/28 09:04:24;;;;;;;15.52;9.13;;;1.50;99.90;;;;;;4990344;28;20026;-68
2021/11/28 09:06:50;;;;;;;12.32;6.75;;;1.50;99.90;;;;;;4990419;28;20026;-67
2021/11/28 09:09:15;;;;;;;10.23;7.18;;;1.50;99.90;;;;;;4987073;28;20022;-67
2021/11/28 09:11:42;;;;;;;8.70;6.15;;;1.50;99.90;;;;;;4988755;28;20049;-68
2021/11/28 09:14:07;;;;;;;13.13;7.68;;;1.50;99.90;;;;;;4995777;22;20404;-69
2021/11/28 09:16:33;;;;;;;12.77;7.55;;;1.60;99.90;;;;;;5008603;28;20022;-70
2021/11/28 09:19:45;;;;;;;13.38;6.65;;;1.60;99.90;;;;;;4999716;28;20346;-70
2021/11/28 09:21:47;;;;;;;17.75;9.55;;;1.60;99.90;;;;;;4984727;28;20478;-70
2021/11/28 09:26:58;;;;;;;10.32;6.70;;;1.60;99.90;;;;;;4986032;28;20076;-69
2021/11/28 09:29:24;;;;;;;13.50;6.57;;;1.60;99.90;;;;;;5042858;28;20022;-69
2021/11/28 09:31:49;;;;;;;10.10;6.47;;;1.60;99.90;;;;;;4989113;28;20034;-69
2021/11/28 09:34:15;;;;;;;12.57;6.75;;;1.60;99.90;;;;;;4983398;28;20022;-69
2021/11/28 09:36:41;;;;;;;10.52;6.55;;;1.60;99.90;;;;;;4984133;28;20027;-70
2021/11/28 09:39:07;;;;;;;12.52;6.57;;;1.60;99.90;;;;;;4988420;28;20027;-70
2021/11/28 09:41:35;;;;;;;13.05;6.85;;;1.60;99.90;;;;;;4989478;28;20087;-70
2021/11/28 09:44:05;;;;;;;15.80;9.93;;;1.60;99.90;;;;;;5056218;28;20042;-69
2021/11/28 09:46:32;;;;;;;18.23;11.18;;;1.60;99.90;;;;;;4981382;28;20034;-72
2021/11/28 09:48:59;;;;;;;23.15;11.85;;;1.60;99.90;;;;;;4987515;28;20061;-69
2021/11/28 09:51:27;;;;;;;14.82;9.43;;;1.60;99.90;;;;;;5056363;28;20022;-70
2021/11/28 09:53:56;;;;;;;14.65;8.93;;;1.60;99.90;;;;;;4987479;28;20026;-70
2021/11/28 09:56:24;;;;;;;14.60;8.93;;;1.60;99.90;;;;;;4989245;28;20095;-70
2021/11/28 09:58:50;;;;;;;14.60;8.55;;;1.70;99.90;;;;;;4988931;28;20029;-70
2021/11/28 10:01:16;;;;;;;20.88;13.30;;;1.70;99.90;;;;;;4988256;28;20026;-69
2021/11/28 10:03:42;;;;;;;21.00;14.38;;;1.70;99.90;;;;;;5055355;28;20026;-70
2021/11/28 10:06:08;;;;;;;16.02;10.75;;;1.70;99.90;;;;;;4989778;28;20112;-70
2021/11/28 10:08:34;;;;;;;18.42;11.18;;;1.70;99.90;;;;;;4974669;28;20470;-70
2021/11/28 10:11:14;;;;;;;14.77;8.55;;;1.70;99.90;;;;;;4985687;28;20056;-69
2021/11/28 10:13:40;;;;;;;18.40;9.07;;;1.70;99.90;;;;;;5056174;28;20417;-69
2021/11/28 10:16:06;;;;;;;13.68;9.13;;;1.70;99.90;;;;;;4973024;28;20168;-69
2021/11/28 10:18:34;;;;;;;16.52;8.95;;;1.70;99.90;;;;;;4990967;28;20101;-69
2021/11/28 10:21:00;;;;;;;13.05;7.68;;;1.80;99.90;;;;;;4987201;28;22219;-69
2021/11/28 10:23:26;;;;;;;13.73;7.70;;;1.80;99.90;;;;;;4985544;28;20096;-68
2021/11/28 10:26:15;;;;;;;12.63;8.18;;;1.80;99.90;;;;;;5052246;28;20072;-69
2021/11/28 10:29:11;;;;;;;17.35;9.55;;;1.80;99.90;;;;;;4986535;28;20034;-68
2021/11/28 10:31:51;;;;;;;15.98;9.65;;;1.90;99.90;;;;;;4976012;28;20359;-69
2021/11/28 10:34:24;;;;;;;18.83;10.18;;;1.90;99.90;;;;;;4989138;28;20458;-69
2021/11/28 10:37:09;;;;;;;12.20;7.65;;;2.00;99.90;;;;;;4996050;28;20083;-70
2021/11/28 10:39:43;;;;;;;14.98;8.48;;;2.00;99.90;;;;;;4969963;28;20022;-70
2021/11/28 10:42:18;;;;;;;14.63;8.38;;;1.90;99.90;;;;;;4986990;28;20034;-70
2021/11/28 10:45:05;;;;;;;15.73;8.23;;;1.90;99.90;;;;;;4979229;28;20110;-70
2021/11/28 10:47:35;;;;;;;10.88;6.78;;;2.00;99.90;;;;;;4975104;28;20542;-70
2021/11/28 10:50:32;;;;;;;15.52;7.63;;;2.10;99.90;;;;;;4988659;28;20037;-69
2021/11/28 10:53:03;;;;;;;11.45;7.40;;;2.10;99.90;;;;;;5047807;28;20034;-70
2021/11/28 10:55:43;;;;;;;14.57;7.60;;;2.00;99.90;;;;;;4987366;28;20034;-69
2021/11/28 10:58:11;;;;;;;11.23;7.45;;;2.00;99.90;;;;;;4983877;28;20019;-69
2021/11/28 11:00:40;;;;;;;11.35;7.20;;;2.00;99.90;;;;;;4987861;28;20101;-69
2021/11/28 11:03:27;;;;;;;10.32;6.30;;;2.00;99.90;;;;;;5038463;28;20050;-69
2021/11/28 11:06:11;;;;;;;12.75;6.63;;;2.00;99.90;;;;;;5033052;28;20058;-69
2021/11/28 11:08:37;;;;;;;13.05;6.70;;;2.10;99.90;;;;;;4978838;28;20034;-69
2021/11/28 11:11:08;;;;;;;12.30;7.47;;;2.10;99.90;;;;;;5053627;28;20031;-70
2021/11/28 11:14:00;;;;;;;17.40;10.57;;;2.10;99.90;;;;;;4985654;28;20030;-70
2021/11/28 11:16:43;;;;;;;15.50;8.23;;;2.20;99.90;;;;;;4983825;28;20482;-69
2021/11/28 11:19:28;;;;;;;11.38;7.38;;;2.10;99.90;;;;;;4981172;28;20027;-69
2021/11/28 11:22:12;;;;;;;10.77;7.47;;;2.20;99.90;;;;;;4983291;28;20052;-69
2021/11/28 11:24:40;;;;;;;15.23;9.30;;;2.20;99.90;;;;;;4987859;28;20033;-70
2021/11/28 11:27:15;;;;;;;13.18;7.75;;;2.20;99.90;;;;;;4986561;28;20026;-70
2021/11/28 11:29:48;;;;;;;9.68;7.38;;;2.20;99.90;;;;;;4985345;28;20502;-69
2021/11/28 11:32:14;;;;;;;;;;;2.20;99.90;;;;;;4987277;28;20497;-70
2021/11/28 11:34:47;;;;;;;13.18;7.10;;;2.20;99.90;;;;;;4986851;28;19910;-69
2021/11/28 11:37:13;;;;;;;13.75;7.90;;;2.20;99.90;;;;;;4987418;28;20549;-70
2021/11/28 11:39:40;;;;;;;11.20;7.32;;;2.20;99.90;;;;;;4978557;28;20073;-69
2021/11/28 11:42:06;;;;;;;13.82;8.13;;;2.20;99.90;;;;;;4988862;28;20566;-70
2021/11/28 11:44:32;;;;;;;10.43;6.90;;;2.20;99.90;;;;;;4978711;28;20533;-70
2021/11/28 11:47:00;;;;;;;11.20;7.57;;;2.20;99.90;;;;;;4974705;28;20027;-67
2021/11/28 11:49:27;;;;;;;14.15;8.20;;;2.20;99.90;;;;;;5044439;28;20619;-70
2021/11/28 11:51:54;;;;;;;13.70;8.38;;;2.20;99.90;;;;;;5050573;28;20486;-70
2021/11/28 11:54:28;;;;;;;11.52;7.25;;;2.30;99.90;;;;;;4983057;28;20030;-70
2021/11/28 11:57:20;;;;;;;11.82;7.50;;;2.30;99.90;;;;;;4990992;28;20110;-69
2021/11/28 12:00:36;;;;;;;11.60;6.85;;;2.30;99.90;;;;;;4989163;28;20375;-69
2021/11/28 12:03:18;;;;;;;12.45;7.03;;;2.30;99.90;;;;;;4984021;28;20517;-69
2021/11/28 12:05:46;;;;;;;12.90;7.20;;;2.30;99.90;;;;;;4983479;28;20026;-68
2021/11/28 12:08:15;;;;;;;10.50;7.32;;;2.30;99.90;;;;;;4985939;28;20026;-69
2021/11/28 12:11:00;;;;;;;14.35;7.93;;;2.30;99.90;;;;;;4981784;28;20027;-69
2021/11/28 12:13:25;;;;;;;13.13;8.60;;;2.30;99.90;;;;;;4987813;28;20053;-69
2021/11/28 12:16:15;;;;;;;11.45;7.88;;;2.20;99.90;;;;;;5056039;28;20121;-69
2021/11/28 12:18:46;;;;;;;13.15;8.40;;;2.30;99.90;;;;;;4975974;28;20082;-69
2021/11/28 12:21:20;;;;;;;16.02;10.40;;;2.30;99.90;;;;;;4989929;28;20539;-69
2021/11/28 12:24:06;;;;;;;15.10;11.10;;;2.30;99.90;;;;;;4987736;28;20026;-69
2021/11/28 12:26:31;;;;;;;13.23;8.90;;;2.30;99.90;;;;;;4987135;28;20443;-69
2021/11/28 12:29:15;;;;;;;15.52;9.38;;;2.30;99.90;;;;;;4979340;28;20030;-68
2021/11/28 12:31:48;;;;;;;14.23;8.70;;;2.40;99.90;;;;;;5053516;28;20513;-68
2021/11/28 12:34:18;;;;;;;12.90;8.45;;;2.40;99.90;;;;;;4978586;28;20031;-69
2021/11/28 12:36:56;;;;;;;15.88;9.10;;;2.40;99.90;;;;;;4993799;28;20061;-69
2021/11/28 12:39:23;;;;;;;14.43;8.50;;;2.40;99.90;;;;;;4980954;28;20121;-69
2021/11/28 12:41:52;;;;;;;11.70;7.90;;;2.40;99.90;;;;;;5042502;28;20591;-68
2021/11/28 12:44:22;;;;;;;14.20;9.23;;;2.40;99.90;;;;;;5049795;28;20505;-68
2021/11/28 12:47:00;;;;;;;17.63;10.07;;;2.40;99.90;;;;;;5050717;28;20029;-68
2021/11/28 12:49:31;;;;;;;13.27;8.20;;;2.40;99.90;;;;;;4987969;28;20456;-69
2021/11/28 12:52:23;;;;;;;12.65;8.30;;;2.40;99.90;;;;;;5037599;28;20038;-69
2021/11/28 12:55:07;;;;;;;16.25;9.40;;;2.40;99.90;;;;;;4983650;28;20063;-69
2021/11/28 12:57:52;;;;;;;16.10;10.60;;;2.40;99.90;;;;;;4987636;28;20018;-69
2021/11/28 13:00:27;;;;;;;15.88;8.63;;;2.40;99.90;;;;;;4980397;28;20031;-68
2021/11/28 13:03:20;;;;;;;21.58;11.43;;;2.40;99.90;;;;;;5045161;28;20040;-69
2021/11/28 13:05:46;;;;;;;;;;;2.40;99.90;;;;;;5057916;28;20027;-69